Time;durP1;ratioP1;P1;durP2;ratioP2;P2;SDS_P1;SDS_P2;PMS_P1;PMS_P2;Temp;Humidity;BMP_temperature;BMP_pressure;BME280_temperature;BME280_humidity;BME280_pressure;Samples;Min_cycle;Max_cycle;Signal;HPM_P1;HPM_P2
2022/10/28 00:01:28;;;;;;;6.57;1.80;;;;;;;12.16;100.00;97142.66;5086800;28;20197;-79
2022/10/28 00:03:57;;;;;;;3.50;1.57;;;;;;;12.31;100.00;97137.72;5087918;28;20197;-79
2022/10/28 00:06:26;;;;;;;9.00;2.30;;;;;;;12.32;100.00;97123.13;5090105;28;20205;-79
2022/10/28 00:08:53;;;;;;;8.37;2.20;;;;;;;12.39;100.00;97132.84;5086952;28;20223;-79
2022/10/28 00:11:24;;;;;;;4.07;1.90;;;;;;;12.38;100.00;97135.78;5087218;28;20193;-79
2022/10/28 00:13:53;;;;;;;7.60;1.70;;;;;;;12.37;100.00;97139.53;5081167;28;20295;-79
2022/10/28 00:16:22;;;;;;;7.03;2.40;;;;;;;12.33;100.00;97139.16;5088260;28;20196;-79
2022/10/28 00:18:52;;;;;;;14.40;3.13;;;;;;;12.37;100.00;97139.53;5084825;28;20220;-80
2022/10/28 00:21:21;;;;;;;4.60;1.60;;;;;;;12.42;100.00;97135.09;5091281;28;20201;-79
2022/10/28 00:23:49;;;;;;;3.27;1.57;;;;;;;12.45;100.00;97131.13;5090152;28;20291;-79
2022/10/28 00:26:18;;;;;;;7.20;1.60;;;;;;;12.41;100.00;97141.59;5087631;28;20204;-79
2022/10/28 00:28:48;;;;;;;5.33;2.43;;;;;;;12.34;100.00;97138.09;5089974;28;20225;-79
2022/10/28 00:31:17;;;;;;;4.33;2.10;;;;;;;12.27;100.00;97139.19;5080620;28;20206;-79
2022/10/28 00:33:45;;;;;;;5.57;2.13;;;;;;;12.19;100.00;97144.91;5087074;28;20193;-79
2022/10/28 00:36:15;;;;;;;5.27;1.90;;;;;;;12.14;100.00;97137.44;5083753;28;20193;-79
2022/10/28 00:38:43;;;;;;;6.37;1.70;;;;;;;12.16;100.00;97129.13;5095539;28;20291;-79
2022/10/28 00:41:12;;;;;;;5.37;2.17;;;;;;;12.16;100.00;97121.81;5089355;28;20204;-79
2022/10/28 00:43:43;;;;;;;6.83;2.07;;;;;;;12.17;100.00;97131.56;5081919;28;20197;-79
2022/10/28 00:46:29;;;;;;;4.00;1.87;;;;;;;12.12;100.00;97134.97;5088616;28;20265;-79
2022/10/28 00:49:00;;;;;;;4.80;1.83;;;;;;;12.09;100.00;97123.72;5103350;28;20197;-79
2022/10/28 00:51:30;;;;;;;5.67;2.10;;;;;;;12.12;100.00;97124.13;5087722;28;20276;-79
2022/10/28 00:53:58;;;;;;;7.10;2.07;;;;;;;12.14;100.00;97126.63;5083963;28;20193;-79
2022/10/28 00:56:29;;;;;;;3.27;1.60;;;;;;;12.14;100.00;97123.91;5088522;28;20201;-79
2022/10/28 00:59:01;;;;;;;8.60;2.13;;;;;;;12.16;100.00;97129.94;5088821;28;20231;-79
2022/10/28 01:01:29;;;;;;;6.07;2.17;;;;;;;12.18;100.00;97127.00;5081435;28;20225;-79
2022/10/28 01:03:58;;;;;;;10.90;2.40;;;;;;;12.21;100.00;97121.16;5085508;28;20204;-79
2022/10/28 01:06:27;;;;;;;3.90;1.83;;;;;;;12.18;100.00;97111.56;5083494;28;20282;-79
2022/10/28 01:08:54;;;;;;;5.50;1.80;;;;;;;12.17;100.00;97118.03;5085046;28;20258;-79
2022/10/28 01:11:35;;;;;;;8.03;1.83;;;;;;;12.20;100.00;97114.06;5087229;28;20227;-79
2022/10/28 01:14:18;;;;;;;3.43;1.97;;;;;;;12.25;100.00;97114.25;5084917;28;20205;-79
2022/10/28 01:16:58;;;;;;;5.00;1.60;;;;;;;12.32;100.00;97115.00;5087411;28;20205;-79
2022/10/28 01:19:59;;;;;;;5.90;1.60;;;;;;;12.37;100.00;97115.16;5087287;28;20286;-79
2022/10/28 01:22:32;;;;;;;4.80;1.70;;;;;;;12.39;100.00;97119.31;5070884;28;20300;-79
2022/10/28 01:25:28;;;;;;;6.40;1.97;;;;;;;12.41;100.00;97117.22;5074635;28;20250;-79
2022/10/28 01:28:23;;;;;;;2.87;1.47;;;;;;;12.42;100.00;97112.59;5082888;28;20232;-79
2022/10/28 01:31:15;;;;;;;8.67;3.30;;;;;;;12.41;100.00;97110.97;5089895;28;20450;-79
2022/10/28 01:33:50;;;;;;;6.83;2.97;;;;;;;12.37;100.00;97098.91;5087654;28;20205;-79
2022/10/28 01:36:27;;;;;;;6.80;2.00;;;;;;;12.36;100.00;97108.09;5083170;28;20200;-79
2022/10/28 01:39:00;;;;;;;5.27;2.20;;;;;;;12.33;100.00;97103.97;5073900;28;20221;-79
2022/10/28 01:41:34;;;;;;;14.73;9.40;;;;;;;12.32;100.00;97106.88;5076157;28;20201;-79
2022/10/28 01:44:08;;;;;;;4.70;3.43;;;;;;;12.20;100.00;97084.28;5083539;28;20257;-79
2022/10/28 01:46:41;;;;;;;3.00;2.03;;;;;;;12.39;100.00;97096.81;5086555;28;20212;-79
2022/10/28 01:49:13;;;;;;;4.87;1.80;;;;;;;12.40;100.00;97096.59;5086377;28;20206;-79
2022/10/28 01:51:46;;;;;;;4.17;2.10;;;;;;;12.38;100.00;97082.44;5087985;28;20193;-79
2022/10/28 01:54:19;;;;;;;5.53;2.47;;;;;;;12.41;100.00;97100.13;5086360;28;20204;-79
2022/10/28 01:56:48;;;;;;;4.63;2.80;;;;;;;12.43;100.00;97093.41;5084794;28;20213;-79
2022/10/28 01:59:19;;;;;;;6.60;2.83;;;;;;;12.35;100.00;97082.88;5084521;28;20220;-79
2022/10/28 02:01:48;;;;;;;9.67;2.20;;;;;;;12.31;100.00;97083.56;5081990;28;20304;-79
2022/10/28 02:04:15;;;;;;;3.43;2.23;;;;;;;12.35;100.00;97087.47;5087671;28;20212;-79
2022/10/28 02:06:46;;;;;;;4.33;1.80;;;;;;;12.37;100.00;97094.31;5080687;28;20200;-79
2022/10/28 02:09:24;;;;;;;9.17;2.10;;;;;;;12.40;100.00;97103.88;5088790;28;20208;-79
2022/10/28 02:12:04;;;;;;;5.00;2.00;;;;;;;12.41;100.00;97100.13;5082380;28;20213;-79
2022/10/28 02:14:40;;;;;;;6.13;2.30;;;;;;;12.40;100.00;97103.88;5078700;28;20258;-79
2022/10/28 02:17:19;;;;;;;4.70;2.50;;;;;;;12.35;100.00;97090.16;5077606;28;20210;-79
2022/10/28 02:19:52;;;;;;;5.60;2.17;;;;;;;12.30;100.00;97096.28;5080058;28;20228;-79
2022/10/28 02:22:27;;;;;;;5.67;2.60;;;;;;;12.26;100.00;97091.50;5076856;28;20296;-79
2022/10/28 02:25:02;;;;;;;6.20;2.20;;;;;;;12.26;100.00;97088.78;5080990;28;20207;-79
2022/10/28 02:27:38;;;;;;;5.13;2.10;;;;;;;12.25;100.00;97089.88;5075473;28;20255;-79
2022/10/28 02:30:09;;;;;;;4.80;1.90;;;;;;;12.24;100.00;97090.91;5082482;28;20212;-79
2022/10/28 02:32:43;;;;;;;4.50;2.20;;;;;;;12.25;100.00;97085.25;5079148;28;20197;-79
2022/10/28 02:35:16;;;;;;;10.47;2.10;;;;;;;12.25;100.00;97087.97;5083093;28;20323;-79
2022/10/28 02:37:46;;;;;;;6.33;2.30;;;;;;;12.42;100.00;97088.22;5080464;28;20252;-79
2022/10/28 02:40:19;;;;;;;4.43;2.47;;;;;;;12.39;100.00;97088.69;5087831;28;20219;-79
2022/10/28 02:42:48;;;;;;;11.53;2.43;;;;;;;12.38;100.00;97090.56;5078785;28;20205;-79
2022/10/28 02:45:19;;;;;;;6.67;2.53;;;;;;;12.31;100.00;97089.81;5083147;28;20883;-79
2022/10/28 02:47:53;;;;;;;6.70;2.60;;;;;;;12.23;100.00;97073.03;5097340;28;20251;-79
2022/10/28 02:50:26;;;;;;;7.40;2.80;;;;;;;12.27;100.00;97082.34;5086071;28;20205;-79
2022/10/28 02:52:58;;;;;;;6.53;2.30;;;;;;;12.27;100.00;97090.47;5070461;28;20268;-79
2022/10/28 02:55:32;;;;;;;8.97;2.10;;;;;;;12.29;100.00;97093.78;5071077;28;20239;-79
2022/10/28 02:58:00;;;;;;;5.17;2.30;;;;;;;12.21;100.00;97075.94;5082893;28;20205;-79
2022/10/28 03:00:27;;;;;;;8.57;2.20;;;;;;;12.29;100.00;97072.13;5088126;28;20207;-79
2022/10/28 03:02:55;;;;;;;12.23;2.33;;;;;;;12.36;100.00;97087.25;5081533;28;20209;-79
2022/10/28 03:05:22;;;;;;;4.60;2.00;;;;;;;12.41;100.00;97079.28;5086762;28;20215;-79
2022/10/28 03:07:50;;;;;;;3.47;2.00;;;;;;;12.33;100.00;97070.63;5083195;28;20197;-79
2022/10/28 03:10:17;;;;;;;6.17;2.30;;;;;;;12.39;100.00;97089.53;5081805;28;20209;-79
2022/10/28 03:12:44;;;;;;;6.67;2.40;;;;;;;12.36;100.00;97098.06;5085116;28;20262;-79
2022/10/28 03:15:11;;;;;;;8.40;2.30;;;;;;;12.36;100.00;97098.06;5082068;28;20218;-79
2022/10/28 03:17:40;;;;;;;8.30;2.00;;;;;;;12.34;100.00;97096.63;5082897;28;20258;-79
2022/10/28 03:20:10;;;;;;;8.27;2.20;;;;;;;12.24;100.00;97082.81;5079666;28;20224;-79
2022/10/28 03:22:37;;;;;;;5.77;2.07;;;;;;;12.30;100.00;97107.09;5078233;28;20213;-79
2022/10/28 03:25:05;;;;;;;7.57;2.60;;;;;;;12.27;100.00;97107.53;5087336;28;20200;-79
2022/10/28 03:27:32;;;;;;;5.10;2.50;;;;;;;12.22;100.00;97107.38;5078985;28;20213;-79
2022/10/28 03:29:59;;;;;;;10.00;4.20;;;;;;;12.12;100.00;97091.63;5086107;28;20196;-79
2022/10/28 03:32:26;;;;;;;9.03;3.27;;;;;;;12.16;100.00;97099.34;5086032;28;20288;-79
2022/10/28 03:34:53;;;;;;;9.67;4.13;;;;;;;12.10;100.00;97099.16;5082722;28;20225;-79
2022/10/28 03:37:22;;;;;;;7.23;3.30;;;;;;;12.09;100.00;97096.66;5081383;28;20205;-79
2022/10/28 03:39:49;;;;;;;5.20;2.90;;;;;;;12.08;100.00;97105.81;5083764;28;20227;-79
2022/10/28 03:42:16;;;;;;;5.93;2.53;;;;;;;11.96;100.00;97100.31;5083708;28;20284;-79
2022/10/28 03:44:43;;;;;;;4.27;2.50;;;;;;;11.96;100.00;97116.56;5085165;28;20204;-79
2022/10/28 03:47:10;;;;;;;5.47;3.33;;;;;;;11.96;100.00;97127.38;5078195;28;20219;-79
2022/10/28 03:49:37;;;;;;;9.37;3.83;;;;;;;11.92;100.00;97128.84;5086289;28;20201;-79
2022/10/28 03:52:05;;;;;;;6.47;3.30;;;;;;;11.87;100.00;97117.88;5089810;28;20252;-79
2022/10/28 03:54:33;;;;;;;7.07;3.20;;;;;;;11.83;100.00;97124.75;5084537;28;20200;-79
2022/10/28 03:57:00;;;;;;;7.93;2.90;;;;;;;11.82;100.00;97133.13;5086675;28;20205;-79
2022/10/28 03:59:27;;;;;;;8.13;3.23;;;;;;;11.83;100.00;97130.16;5081015;28;20228;-79
2022/10/28 04:01:54;;;;;;;7.03;3.13;;;;;;;11.78;100.00;97138.13;5085848;28;20240;-79
2022/10/28 04:04:21;;;;;;;5.23;2.80;;;;;;;11.82;100.00;97139.38;5090999;28;20205;-79
2022/10/28 04:06:50;;;;;;;4.20;2.83;;;;;;;11.77;100.00;97136.47;5089934;28;20227;-79
2022/10/28 04:09:17;;;;;;;9.10;3.13;;;;;;;11.79;100.00;97147.06;5088564;28;20200;-79
2022/10/28 04:11:48;;;;;;;5.03;2.67;;;;;;;11.79;100.00;97138.97;5081524;28;20334;-79
2022/10/28 04:14:15;;;;;;;7.87;2.33;;;;;;;11.79;100.00;97134.38;5082377;28;20204;-79
2022/10/28 04:16:42;;;;;;;8.57;3.20;;;;;;;11.71;100.00;97132.75;5084921;28;20197;-79
2022/10/28 04:19:09;;;;;;;5.30;2.87;;;;;;;11.69;100.00;97131.28;5087149;28;20307;-79
2022/10/28 04:21:37;;;;;;;8.47;3.10;;;;;;;11.66;100.00;97129.00;5082752;28;20247;-79
2022/10/28 04:24:05;;;;;;;6.97;2.83;;;;;;;11.70;100.00;97147.31;5088310;28;20227;-79
2022/10/28 04:26:32;;;;;;;7.53;3.13;;;;;;;11.69;100.00;97147.53;5087688;28;20241;-79
2022/10/28 04:29:00;;;;;;;5.40;2.63;;;;;;;11.69;100.00;97142.09;5086003;28;20293;-79
2022/10/28 04:31:27;;;;;;;11.30;5.93;;;;;;;11.67;100.00;97152.31;5073439;28;20201;-79
2022/10/28 04:33:54;;;;;;;9.07;2.57;;;;;;;11.59;100.00;97136.34;5079454;28;20263;-79
2022/10/28 04:36:22;;;;;;;9.10;2.60;;;;;;;11.56;100.00;97140.31;5082706;28;20212;-79
2022/10/28 04:38:50;;;;;;;6.73;2.83;;;;;;;11.60;100.00;97135.28;5098485;28;20276;-79
2022/10/28 04:41:18;;;;;;;5.30;3.10;;;;;;;11.60;100.00;97132.59;5086722;28;20272;-79
2022/10/28 04:43:46;;;;;;;12.80;3.43;;;;;;;11.59;100.00;97123.66;5087380;28;20216;-79
2022/10/28 04:46:14;;;;;;;6.87;3.50;;;;;;;11.64;100.00;97133.84;5087238;28;20196;-79
2022/10/28 04:48:42;;;;;;;8.57;2.70;;;;;;;11.63;100.00;97129.47;5091946;28;20235;-79
2022/10/28 04:51:09;;;;;;;5.20;2.60;;;;;;;11.64;100.00;97125.72;5086507;28;20201;-79
2022/10/28 04:53:36;;;;;;;8.73;2.33;;;;;;;11.57;100.00;97112.22;5084022;28;20258;-79
2022/10/28 04:56:03;;;;;;;7.03;2.80;;;;;;;11.53;100.00;97119.13;5077755;28;20209;-79
2022/10/28 04:58:30;;;;;;;8.83;3.30;;;;;;;11.50;100.00;97108.72;5086441;28;20256;-79
2022/10/28 05:00:57;;;;;;;5.67;3.40;;;;;;;11.49;100.00;97111.63;5090581;28;20200;-79
2022/10/28 05:03:25;;;;;;;5.00;3.33;;;;;;;11.44;100.00;97106.06;5087544;28;20296;-79
2022/10/28 05:05:52;;;;;;;7.53;3.50;;;;;;;11.42;100.00;97100.88;5084944;28;20204;-79
2022/10/28 05:08:19;;;;;;;6.60;3.43;;;;;;;11.45;100.00;97102.31;5081980;28;20297;-79
2022/10/28 05:10:49;;;;;;;7.27;3.47;;;;;;;11.46;100.00;97093.16;5087640;28;20225;-79
2022/10/28 05:13:17;;;;;;;4.73;2.93;;;;;;;11.45;100.00;97105.03;5088803;28;20239;-80
2022/10/28 05:15:44;;;;;;;7.73;2.90;;;;;;;11.42;100.00;97105.44;5086817;28;20209;-80
2022/10/28 05:18:11;;;;;;;12.83;3.90;;;;;;;11.32;100.00;97093.22;5084746;28;20236;-79
2022/10/28 05:20:39;;;;;;;8.80;3.17;;;;;;;11.39;100.00;97098.63;5083595;28;20803;-79
2022/10/28 05:23:06;;;;;;;6.90;2.87;;;;;;;11.36;100.00;97096.34;5080493;28;20204;-79
2022/10/28 05:25:33;;;;;;;8.60;3.90;;;;;;;11.36;100.00;97096.34;5079476;28;20206;-79
2022/10/28 05:28:00;;;;;;;4.37;3.60;;;;;;;11.31;100.00;97091.56;5083854;28;20207;-79
2022/10/28 05:30:28;;;;;;;12.47;4.00;;;;;;;11.34;100.00;97095.72;5083360;28;20192;-79
2022/10/28 05:33:00;;;;;;;9.37;3.70;;;;;;;11.33;100.00;97094.06;5079115;28;20205;-79
2022/10/28 05:35:28;;;;;;;9.43;5.00;;;;;;;11.32;100.00;97090.50;5097349;28;20236;-79
2022/10/28 05:37:57;;;;;;;9.60;3.33;;;;;;;11.28;100.00;97097.41;5084499;28;20196;-79
2022/10/28 05:40:24;;;;;;;10.73;5.10;;;;;;;11.30;100.00;97098.03;5088139;28;20276;-79
2022/10/28 05:42:51;;;;;;;5.63;3.90;;;;;;;11.27;100.00;97106.56;5083977;28;20208;-80
2022/10/28 05:45:18;;;;;;;6.70;3.47;;;;;;;11.25;100.00;97110.53;5087007;28;20197;-79
2022/10/28 05:47:47;;;;;;;9.10;3.10;;;;;;;11.23;100.00;97108.03;5084419;28;20213;-79
2022/10/28 05:50:15;;;;;;;7.90;3.53;;;;;;;11.21;100.00;97104.75;5075311;28;20236;-80
2022/10/28 05:52:46;;;;;;;7.33;3.43;;;;;;;11.16;100.00;97101.00;5083104;28;20212;-79
2022/10/28 05:55:14;;;;;;;6.77;3.30;;;;;;;11.18;100.00;97107.88;5087589;28;20201;-79
2022/10/28 05:57:41;;;;;;;9.53;3.97;;;;;;;11.15;100.00;97093.94;5081649;28;20204;-79
2022/10/28 06:00:10;;;;;;;12.53;4.07;;;;;;;11.12;100.00;97097.91;5079154;28;20228;-79
2022/10/28 06:02:40;;;;;;;7.07;3.63;;;;;;;11.02;100.00;97088.59;5085685;28;20201;-79
2022/10/28 06:05:08;;;;;;;5.37;3.73;;;;;;;11.13;100.00;97098.75;5087403;28;20271;-79
2022/10/28 06:07:35;;;;;;;4.53;3.33;;;;;;;11.09;100.00;97095.63;5086544;28;20193;-79
2022/10/28 06:10:03;;;;;;;8.03;3.97;;;;;;;11.10;100.00;97097.31;5076765;28;20255;-79
2022/10/28 06:12:32;;;;;;;7.40;3.73;;;;;;;11.09;100.00;97103.75;5081441;28;20205;-79
2022/10/28 06:14:59;;;;;;;8.67;4.43;;;;;;;11.13;100.00;97105.00;5079769;28;20299;-79
2022/10/28 06:17:26;;;;;;;7.73;4.73;;;;;;;11.16;100.00;97106.41;5081613;28;20188;-79
2022/10/28 06:19:54;;;;;;;10.33;3.90;;;;;;;11.19;100.00;97108.69;5086143;28;20252;-80
2022/10/28 06:22:21;;;;;;;10.20;4.27;;;;;;;11.19;100.00;97106.81;5081584;28;20204;-80
2022/10/28 06:24:49;;;;;;;9.80;3.83;;;;;;;11.22;100.00;97111.81;5084980;28;20209;-79
2022/10/28 06:27:15;;;;;;;11.57;3.77;;;;;;;11.24;100.00;97112.41;5076329;28;20209;-79
2022/10/28 06:29:44;;;;;;;6.80;3.47;;;;;;;11.28;100.00;97115.50;5073884;28;20251;-79
2022/10/28 06:32:11;;;;;;;8.17;3.90;;;;;;;11.31;100.00;97112.38;5086069;28;20197;-79
2022/10/28 06:34:38;;;;;;;7.43;3.23;;;;;;;11.33;100.00;97108.41;5077288;28;20225;-79
2022/10/28 06:37:06;;;;;;;8.30;3.57;;;;;;;11.34;100.00;97107.34;5084176;28;20260;-79
2022/10/28 06:39:33;;;;;;;7.43;3.30;;;;;;;11.38;100.00;97102.34;5081687;28;20224;-79
2022/10/28 06:42:01;;;;;;;6.17;2.97;;;;;;;11.41;100.00;97095.66;5085114;28;20200;-79
2022/10/28 06:44:28;;;;;;;9.53;2.60;;;;;;;11.51;100.00;97101.44;5083682;28;20295;-79
2022/10/28 06:46:57;;;;;;;8.07;2.33;;;;;;;11.55;100.00;97106.22;5083817;28;20204;-79
2022/10/28 06:49:24;;;;;;;4.90;2.67;;;;;;;11.60;100.00;97109.06;5085446;28;20197;-79
2022/10/28 06:51:51;;;;;;;6.07;3.90;;;;;;;11.55;100.00;97106.22;5083782;28;20208;-79
2022/10/28 06:54:18;;;;;;;8.73;3.97;;;;;;;11.66;100.00;97120.88;5080885;28;20216;-79
2022/10/28 06:56:47;;;;;;;9.63;4.00;;;;;;;11.66;100.00;97115.47;5074968;28;20200;-80
2022/10/28 06:59:14;;;;;;;6.43;3.60;;;;;;;11.68;100.00;97133.16;5085075;28;20225;-79
2022/10/28 07:01:41;;;;;;;6.47;3.40;;;;;;;11.74;100.00;97129.59;5078541;28;20204;-79
2022/10/28 07:04:12;;;;;;;8.57;4.07;;;;;;;11.75;100.00;97130.44;5076005;28;20288;-79
2022/10/28 07:06:39;;;;;;;8.20;4.20;;;;;;;11.74;100.00;97137.72;5081488;28;20277;-79
2022/10/28 07:09:07;;;;;;;7.93;4.33;;;;;;;11.77;100.00;97136.47;5083201;28;20201;-79
2022/10/28 07:11:34;;;;;;;14.83;4.40;;;;;;;11.70;100.00;97127.53;5081930;28;20210;-79
2022/10/28 07:14:01;;;;;;;10.37;3.73;;;;;;;11.79;100.00;97137.09;5085418;28;20204;-79
2022/10/28 07:16:28;;;;;;;6.53;3.93;;;;;;;11.79;100.00;97131.69;5089530;28;20197;-79
2022/10/28 07:18:55;;;;;;;9.63;4.03;;;;;;;11.82;100.00;97139.38;5086665;28;20220;-79
2022/10/28 07:21:27;;;;;;;8.30;3.97;;;;;;;11.83;100.00;97135.59;5085603;28;20242;-79
2022/10/28 07:23:55;;;;;;;10.90;4.30;;;;;;;11.80;100.00;97141.44;5085257;28;20205;-79
2022/10/28 07:26:22;;;;;;;12.80;4.23;;;;;;;11.81;100.00;97145.81;5098313;28;20200;-80
2022/10/28 07:28:49;;;;;;;9.67;4.17;;;;;;;11.74;100.00;97139.56;5074062;28;20296;-80
2022/10/28 07:31:17;;;;;;;6.77;3.90;;;;;;;11.72;100.00;97131.69;5090258;28;20197;-79
2022/10/28 07:33:44;;;;;;;7.70;3.50;;;;;;;11.78;100.00;97143.53;5080264;28;20212;-79
2022/10/28 07:36:12;;;;;;;10.57;3.70;;;;;;;11.89;100.00;97150.97;5084661;28;20203;-79
2022/10/28 07:38:41;;;;;;;10.67;3.90;;;;;;;11.93;100.00;97156.75;5080982;28;20210;-79
2022/10/28 07:41:09;;;;;;;9.53;4.07;;;;;;;12.00;100.00;97161.06;5083588;28;20225;-79
2022/10/28 07:43:38;;;;;;;6.40;3.47;;;;;;;12.06;100.00;97160.22;5087837;28;20197;-79
2022/10/28 07:46:06;;;;;;;10.73;4.10;;;;;;;12.10;100.00;97164.13;5091204;28;20243;-79
2022/10/28 07:48:33;;;;;;;15.13;4.50;;;;;;;12.16;100.00;97156.19;5092009;28;20217;-79
2022/10/28 07:51:01;;;;;;;9.40;4.40;;;;;;;12.23;100.00;97168.63;5087068;28;20202;-80
2022/10/28 07:53:28;;;;;;;13.90;3.80;;;;;;;12.28;100.00;97165.22;5084047;28;20201;-79
2022/10/28 07:55:58;;;;;;;10.67;4.20;;;;;;;12.35;100.00;97163.28;5088829;28;20296;-79
2022/10/28 07:58:26;;;;;;;9.10;3.87;;;;;;;12.41;100.00;97175.97;5090594;28;20236;-79
2022/10/28 08:00:53;;;;;;;8.57;4.40;;;;;;;12.44;100.00;97173.63;5081325;28;20216;-79
2022/10/28 08:03:23;;;;;;;10.83;3.77;;;;;;;12.51;100.00;97177.09;5085703;28;20213;-80
2022/10/28 08:05:51;;;;;;;9.60;4.13;;;;;;;12.54;100.00;97159.59;5080805;28;20311;-79
2022/10/28 08:08:18;;;;;;;9.27;3.83;;;;;;;12.59;100.00;97156.22;5086555;28;20202;-79
2022/10/28 08:10:45;;;;;;;10.77;4.17;;;;;;;12.69;100.00;97167.34;5084483;28;20197;-79
2022/10/28 08:13:13;;;;;;;11.17;4.00;;;;;;;12.77;100.00;97167.06;5087115;28;20208;-79
2022/10/28 08:15:40;;;;;;;10.37;3.93;;;;;;;12.77;100.00;97142.66;5088764;28;20254;-79
2022/10/28 08:18:07;;;;;;;13.07;4.17;;;;;;;12.90;100.00;97147.97;5084294;28;20202;-80
2022/10/28 08:20:35;;;;;;;19.93;5.83;;;;;;;12.98;100.00;97150.38;5082148;28;20217;-80
2022/10/28 08:23:02;;;;;;;10.57;4.73;;;;;;;13.03;100.00;97155.09;5086568;28;20205;-80
2022/10/28 08:25:29;;;;;;;12.77;5.37;;;;;;;13.03;100.00;97152.41;5088002;28;20211;-79
2022/10/28 08:27:57;;;;;;;16.77;6.27;;;;;;;13.13;100.00;97160.84;5088768;28;20197;-80
2022/10/28 08:30:25;;;;;;;12.83;5.20;;;;;;;13.18;100.00;97161.03;5088784;28;20201;-80
2022/10/28 08:32:54;;;;;;;9.13;5.63;;;;;;;13.23;100.00;97158.47;5078436;28;20197;-80
2022/10/28 08:35:22;;;;;;;9.60;4.80;;;;;;;13.23;100.00;97144.91;5085984;28;20228;-79
2022/10/28 08:37:51;;;;;;;11.33;5.20;;;;;;;13.27;100.00;97143.38;5087830;28;20213;-80
2022/10/28 08:40:21;;;;;;;12.53;6.93;;;;;;;13.42;100.00;97154.69;5086394;28;20237;-80
2022/10/28 08:42:55;;;;;;;19.87;10.10;;;;;;;13.45;100.00;97162.34;5081119;28;20266;-80
2022/10/28 08:45:40;;;;;;;14.63;8.00;;;;;;;13.53;100.00;97162.03;5082431;28;20205;-79
2022/10/28 08:48:18;;;;;;;13.70;8.53;;;;;;;13.63;100.00;97158.75;5082446;28;20209;-79
2022/10/28 08:50:50;;;;;;;15.70;7.83;;;;;;;13.74;100.00;97162.59;5079333;28;20217;-79
2022/10/28 08:53:21;;;;;;;17.97;7.30;;;;;;;13.79;100.00;97151.84;5079175;28;20205;-79
2022/10/28 08:55:53;;;;;;;11.83;5.77;;;;;;;13.89;100.00;97158.38;5085749;28;20200;-79
2022/10/28 08:58:25;;;;;;;12.00;5.00;;;;;;;13.96;100.00;97155.56;5084910;28;20220;-79
2022/10/28 09:00:55;;;;;;;8.50;4.63;;;;;;;13.99;100.00;97163.25;5087527;28;20224;-79
2022/10/28 09:03:26;;;;;;;14.23;4.57;;;;;;;13.86;100.00;97136.31;5084208;28;20233;-79
2022/10/28 09:06:00;;;;;;;10.80;4.97;;;;;;;13.96;100.00;97152.84;5084840;28;20229;-79
2022/10/28 09:08:30;;;;;;;11.40;4.43;;;;;;;13.90;100.00;97132.06;5104287;28;20270;-79
2022/10/28 09:11:16;;;;;;;13.73;4.90;;;;;;;13.98;100.00;97145.31;5086570;28;20201;-79
2022/10/28 09:14:00;;;;;;;12.63;5.00;;;;;;;14.05;100.00;97156.06;5077913;28;20263;-79
2022/10/28 09:16:45;;;;;;;10.17;4.93;;;;;;;14.12;100.00;97152.19;5081128;28;20272;-79
2022/10/28 09:19:28;;;;;;;11.67;4.10;;;;;;;14.10;100.00;97143.47;5077316;28;20236;-79
2022/10/28 09:22:08;;;;;;;10.47;4.70;;;;;;;14.12;100.00;97154.91;5080468;28;20208;-79
2022/10/28 09:24:46;;;;;;;18.70;4.80;;;;;;;14.08;100.00;97158.31;5083904;28;20283;-80
2022/10/28 09:27:22;;;;;;;13.53;4.93;;;;;;;14.07;100.00;97154.78;5082184;28;20233;-79
2022/10/28 09:29:58;;;;;;;13.73;5.07;;;;;;;14.08;100.00;97156.44;5075912;28;20204;-79
2022/10/28 09:32:37;;;;;;;9.30;5.30;;;;;;;14.11;100.00;97150.56;5080936;28;20201;-79
2022/10/28 09:35:10;;;;;;;15.17;5.37;;;;;;;14.11;100.00;97150.56;5078643;28;20241;-79
2022/10/28 09:37:41;;;;;;;14.27;5.67;;;;;;;14.11;100.00;97150.56;5083709;28;20197;-79
2022/10/28 09:40:16;;;;;;;15.50;5.67;;;;;;;14.10;100.00;97148.06;5080278;28;20317;-80
2022/10/28 09:42:48;;;;;;;13.57;5.27;;;;;;;14.06;100.00;97136.84;5079896;28;20215;-79
2022/10/28 09:45:21;;;;;;;10.30;4.03;;;;;;;14.09;100.00;97135.53;5083023;28;20209;-80
2022/10/28 09:47:58;;;;;;;13.43;4.63;;;;;;;14.15;100.00;97146.28;5082781;28;20197;-80
2022/10/28 09:50:30;;;;;;;12.30;5.43;;;;;;;14.26;100.00;97140.06;5082463;28;20259;-79
2022/10/28 09:53:04;;;;;;;11.97;4.50;;;;;;;14.45;100.00;97140.00;5080899;28;20269;-79
2022/10/28 09:55:32;;;;;;;11.77;5.63;;;;;;;14.62;100.00;97132.81;5084268;28;20242;-79
2022/10/28 09:57:59;;;;;;;12.83;5.97;;;;;;;14.84;100.00;97139.28;5082284;28;20201;-79
2022/10/28 10:00:26;;;;;;;13.30;6.17;;;;;;;15.07;100.00;97139.25;5082337;28;20217;-79
2022/10/28 10:02:57;;;;;;;18.10;5.23;;;;;;;15.27;100.00;97132.56;5082489;28;20197;-79
2022/10/28 10:05:25;;;;;;;13.33;4.40;;;;;;;15.47;100.00;97133.00;5081858;28;20213;-79
2022/10/28 10:07:56;;;;;;;6.23;3.93;;;;;;;15.71;100.00;97140.03;5072676;28;20198;-79
2022/10/28 10:10:26;;;;;;;7.40;4.03;;;;;;;15.95;100.00;97145.34;5080548;28;20294;-79
2022/10/28 10:13:00;;;;;;;11.07;4.10;;;;;;;16.16;100.00;97145.47;5085587;28;20222;-79
2022/10/28 10:15:31;;;;;;;15.27;4.83;;;;;;;16.30;100.00;97147.88;5073906;28;20278;-79
2022/10/28 10:18:03;;;;;;;11.63;5.03;;;;;;;16.37;100.00;97138.47;5082563;28;20217;-79
2022/10/28 10:20:47;;;;;;;12.60;4.47;;;;;;;16.53;100.00;97144.97;5095446;28;20267;-80
2022/10/28 10:23:23;;;;;;;10.20;3.77;;;;;;;16.72;100.00;97140.13;5078512;28;20205;-79
2022/10/28 10:25:55;;;;;;;5.23;3.87;;;;;;;16.95;100.00;97139.91;5088247;28;20240;-80
2022/10/28 10:28:23;;;;;;;9.80;4.23;;;;;;;17.08;100.00;97139.56;5075925;28;20292;-79
2022/10/28 10:30:53;;;;;;;7.37;3.40;;;;;;;17.30;100.00;97132.22;5084534;28;20267;-80
2022/10/28 10:33:24;;;;;;;13.13;4.10;;;;;;;17.50;100.00;97119.91;5077273;28;20298;-79
2022/10/28 10:35:58;;;;;;;12.60;4.50;;;;;;;17.85;100.00;97144.91;5081397;28;20245;-80
2022/10/28 10:38:27;;;;;;;17.07;4.97;;;;;;;18.11;100.00;97146.81;5085889;28;20197;-80
2022/10/28 10:40:55;;;;;;;12.43;4.83;;;;;;;18.38;100.00;97154.16;5083602;28;20225;-81
2022/10/28 10:43:29;;;;;;;13.10;4.97;;;;;;;18.59;100.00;97145.06;5082423;28;20204;-79
2022/10/28 10:46:02;;;;;;;13.07;4.90;;;;;;;18.85;100.00;97151.56;5083991;28;20208;-80
2022/10/28 10:48:32;;;;;;;14.20;4.40;;;;;;;19.14;100.00;97143.81;5081109;28;20285;-79
2022/10/28 10:51:06;;;;;;;12.23;4.57;;;;;;;19.41;100.00;97144.47;5085455;28;20215;-80
2022/10/28 10:53:35;;;;;;;12.40;4.18;;;;;;;19.53;100.00;97142.38;5082988;28;20278;-80
2022/10/28 10:56:07;;;;;;;12.73;3.93;;;;;;;19.71;100.00;97151.22;5092497;28;20201;-80
2022/10/28 10:58:38;;;;;;;10.18;4.03;;;;;;;19.87;100.00;97155.63;5089702;28;20224;-80
2022/10/28 11:01:08;;;;;;;4.97;3.30;;;;;;;20.13;100.00;97165.56;5088982;28;20280;-79
2022/10/28 11:03:40;;;;;;;10.13;3.70;;;;;;;19.86;100.00;97162.22;5090253;28;20197;-80
2022/10/28 11:06:19;;;;;;;10.27;3.80;;;;;;;19.68;100.00;97149.00;5104217;28;20278;-78
2022/10/28 11:08:46;;;;;;;9.52;3.67;;;;;;;19.69;100.00;97153.38;5099091;28;20204;-78
2022/10/28 11:11:18;;;;;;;8.45;3.58;;;;;;;19.82;100.00;97158.38;5087836;28;20202;-78
2022/10/28 11:13:46;;;;;;;5.75;2.70;;;;;;;19.90;99.40;97160.59;5085754;28;20223;-78
2022/10/28 11:16:21;;;;;;;7.75;3.00;;;;;;;20.18;100.00;97156.53;5080295;28;20212;-78
2022/10/28 11:18:53;;;;;;;7.85;2.80;;;;;;;20.13;98.59;97151.03;5086061;28;20230;-78
2022/10/28 11:21:49;;;;;;;8.50;2.80;;;;;;;20.01;96.54;97154.03;5084333;28;20228;-78
2022/10/28 11:24:39;;;;;;;6.85;2.72;;;;;;;19.59;99.35;97138.56;5088297;28;20310;-78
2022/10/28 11:27:18;;;;;;;4.93;2.60;;;;;;;19.40;98.12;97137.34;5081900;28;20225;-78
2022/10/28 11:29:46;;;;;;;7.50;2.63;;;;;;;19.39;97.59;97132.16;5080929;28;20208;-78
2022/10/28 11:32:26;;;;;;;9.88;3.67;;;;;;;19.60;94.99;97137.47;5090029;28;20215;-78
2022/10/28 11:35:06;;;;;;;9.05;2.55;;;;;;;19.67;94.16;97137.22;5093350;28;20296;-78
2022/10/28 11:37:49;;;;;;;6.10;2.40;;;;;;;19.57;95.08;97138.00;5081612;28;20209;-79